Time;durP1;ratioP1;P1;durP2;ratioP2;P2;SDS_P1;SDS_P2;PMS_P1;PMS_P2;Temp;Humidity;BMP_temperature;BMP_pressure;BME280_temperature;BME280_humidity;BME280_pressure;Samples;Min_cycle;Max_cycle;Signal;HPM_P1;HPM_P2
2023/09/25 00:01:16;;;;;;;5.25;2.30;;;11.70;99.90;;;;;;4960261;29;20043;-88
2023/09/25 00:03:43;;;;;;;4.90;2.13;;;11.70;99.90;;;;;;4962370;28;20038;-88
2023/09/25 00:06:10;;;;;;;4.32;2.30;;;11.70;99.90;;;;;;4967327;29;20389;-88
2023/09/25 00:08:36;;;;;;;6.22;2.40;;;11.70;99.90;;;;;;4971108;29;20051;-88
2023/09/25 00:11:03;;;;;;;4.38;2.30;;;11.60;99.90;;;;;;4958514;29;20083;-87
2023/09/25 00:13:30;;;;;;;7.60;2.42;;;11.60;99.90;;;;;;4976333;28;20038;-88
2023/09/25 00:16:00;;;;;;;4.22;2.47;;;11.70;99.90;;;;;;4977533;28;20117;-88
2023/09/25 00:18:28;;;;;;;4.03;2.08;;;11.60;99.90;;;;;;4958450;29;20043;-87
2023/09/25 00:20:55;;;;;;;4.78;2.30;;;11.60;99.90;;;;;;4958090;29;20043;-87
2023/09/25 00:23:22;;;;;;;4.30;2.28;;;11.60;99.90;;;;;;4976985;28;20411;-88
2023/09/25 00:25:50;;;;;;;8.85;2.97;;;11.20;99.90;;;;;;4977136;28;20046;-88
2023/09/25 00:28:17;;;;;;;6.18;2.10;;;11.70;99.90;;;;;;4976914;28;20104;-88
2023/09/25 00:30:44;;;;;;;5.88;2.35;;;11.70;99.90;;;;;;4977452;28;20042;-88
2023/09/25 00:33:11;;;;;;;5.40;2.42;;;11.70;99.90;;;;;;4972601;29;20436;-88
2023/09/25 00:35:42;;;;;;;4.28;2.35;;;11.70;99.90;;;;;;4958137;29;20043;-89
2023/09/25 00:38:09;;;;;;;4.85;2.40;;;11.80;99.90;;;;;;4974032;29;20051;-88
2023/09/25 00:40:36;;;;;;;4.07;2.13;;;11.80;99.90;;;;;;4970386;28;20049;-88
2023/09/25 00:43:05;;;;;;;4.68;2.50;;;11.90;99.90;;;;;;4958105;29;20039;-88
2023/09/25 00:45:36;;;;;;;5.95;2.55;;;11.90;99.90;;;;;;4958127;28;20431;-88
2023/09/25 00:48:04;;;;;;;5.20;2.38;;;12.00;99.90;;;;;;4969376;29;20043;-88
2023/09/25 00:50:32;;;;;;;4.72;2.35;;;12.00;99.90;;;;;;4959367;28;20043;-89
2023/09/25 00:53:06;;;;;;;4.18;2.00;;;12.10;99.90;;;;;;4973199;28;20039;-88
2023/09/25 00:55:34;;;;;;;4.20;2.30;;;12.10;99.90;;;;;;4976853;29;20059;-89
2023/09/25 00:58:01;;;;;;;5.80;2.30;;;12.10;99.90;;;;;;4957525;29;20047;-88
2023/09/25 01:00:28;;;;;;;3.85;2.20;;;12.20;99.90;;;;;;4961600;28;20101;-88
2023/09/25 01:02:55;;;;;;;7.32;2.40;;;12.30;99.90;;;;;;4966151;29;20039;-88
2023/09/25 01:05:22;;;;;;;5.10;2.20;;;12.30;99.90;;;;;;4960331;29;20396;-88
2023/09/25 01:07:49;;;;;;;3.75;1.92;;;12.30;99.90;;;;;;4956474;29;20140;-88
2023/09/25 01:10:18;;;;;;;4.72;2.10;;;12.30;99.90;;;;;;4969066;29;20791;-88
2023/09/25 01:12:46;;;;;;;5.95;2.35;;;12.30;99.90;;;;;;4969356;29;20036;-88
2023/09/25 01:15:15;;;;;;;6.45;2.08;;;12.70;99.90;;;;;;4943427;29;20570;-88
2023/09/25 01:17:43;;;;;;;4.38;1.75;;;12.30;99.90;;;;;;4969253;28;20380;-87
2023/09/25 01:20:13;;;;;;;4.78;1.70;;;12.40;99.90;;;;;;4975544;28;20042;-88
2023/09/25 01:22:50;;;;;;;3.83;2.00;;;12.30;99.90;;;;;;4959783;29;20043;-88
2023/09/25 01:25:19;;;;;;;7.78;2.90;;;12.30;99.90;;;;;;4961560;28;20046;-88
2023/09/25 01:27:47;;;;;;;5.22;2.53;;;12.40;99.90;;;;;;4963046;29;20039;-88
2023/09/25 01:30:15;;;;;;;3.50;1.83;;;12.40;99.90;;;;;;4956367;29;20488;-88
2023/09/25 01:32:44;;;;;;;4.57;2.20;;;12.40;99.90;;;;;;4956261;29;20043;-88
2023/09/25 01:35:18;;;;;;;4.22;2.20;;;12.30;99.90;;;;;;4956326;29;20046;-88
2023/09/25 01:37:46;;;;;;;3.83;1.85;;;12.30;99.90;;;;;;4948812;29;20083;-88
2023/09/25 01:40:14;;;;;;;3.08;1.70;;;12.30;99.90;;;;;;4963654;29;20047;-88
2023/09/25 01:42:40;;;;;;;4.20;2.08;;;12.20;99.90;;;;;;4959651;28;20051;-88
2023/09/25 01:45:11;;;;;;;5.43;1.90;;;12.30;99.90;;;;;;4960949;28;20049;-87
2023/09/25 01:47:39;;;;;;;3.55;2.10;;;12.30;99.90;;;;;;4953696;29;20090;-88
2023/09/25 01:50:10;;;;;;;3.85;2.00;;;12.10;99.90;;;;;;4956113;28;20047;-88
2023/09/25 01:52:39;;;;;;;4.68;2.13;;;12.10;99.90;;;;;;4958448;28;20577;-88
2023/09/25 01:55:06;;;;;;;4.15;1.85;;;12.10;99.90;;;;;;4961621;28;20039;-88
2023/09/25 01:57:34;;;;;;;7.40;2.20;;;12.10;99.90;;;;;;4962388;28;20046;-88
2023/09/25 02:00:01;;;;;;;6.25;2.13;;;12.00;99.90;;;;;;4965479;29;20122;-88
2023/09/25 02:02:27;;;;;;;4.57;1.95;;;12.00;99.90;;;;;;4948543;29;20086;-87
2023/09/25 02:04:54;;;;;;;4.38;1.90;;;11.90;99.90;;;;;;4968572;29;20043;-88
2023/09/25 02:07:21;;;;;;;5.60;2.03;;;11.90;99.90;;;;;;4913595;29;1112836;-88
2023/09/25 02:09:48;;;;;;;10.48;2.17;;;12.00;99.90;;;;;;4945193;29;20055;-88
2023/09/25 02:12:15;;;;;;;4.40;2.10;;;11.90;99.90;;;;;;4929737;29;20411;-87
2023/09/25 02:14:42;;;;;;;6.85;2.03;;;11.80;99.90;;;;;;4934310;29;20512;-87
2023/09/25 02:17:08;;;;;;;4.18;2.35;;;11.80;99.90;;;;;;4927873;29;20378;-88
2023/09/25 02:19:36;;;;;;;8.77;2.13;;;11.90;99.90;;;;;;4942815;29;20138;-88
2023/09/25 02:22:06;;;;;;;6.05;2.10;;;11.80;99.90;;;;;;4935425;29;20485;-88
2023/09/25 02:24:38;;;;;;;3.80;2.08;;;11.80;99.90;;;;;;4937673;29;20127;-87
2023/09/25 02:27:05;;;;;;;6.15;2.38;;;11.70;99.90;;;;;;4950127;29;20043;-88
2023/09/25 02:29:32;;;;;;;4.40;2.38;;;11.70;99.90;;;;;;4937634;29;20050;-88
2023/09/25 02:31:58;;;;;;;4.45;2.28;;;11.60;99.90;;;;;;4919783;29;20040;-88
2023/09/25 02:34:25;;;;;;;4.55;2.58;;;11.60;99.90;;;;;;4918802;29;20048;-88
2023/09/25 02:36:52;;;;;;;5.88;2.22;;;11.60;99.90;;;;;;4936547;29;20040;-88
2023/09/25 02:39:18;;;;;;;5.85;2.47;;;11.60;99.90;;;;;;4937212;29;20051;-88
2023/09/25 02:41:45;;;;;;;8.07;2.20;;;11.50;99.90;;;;;;4937807;29;20047;-88
2023/09/25 02:44:12;;;;;;;5.03;2.20;;;11.50;99.90;;;;;;4937075;29;20048;-87
2023/09/25 02:46:38;;;;;;;4.30;2.05;;;11.50;99.90;;;;;;4925308;29;20071;-88
2023/09/25 02:49:05;;;;;;;5.88;2.50;;;11.50;99.90;;;;;;4935212;29;20052;-87
2023/09/25 02:51:32;;;;;;;7.15;2.42;;;11.50;99.90;;;;;;4956821;29;20046;-88
2023/09/25 02:53:58;;;;;;;6.78;2.30;;;11.50;99.90;;;;;;4943337;29;20058;-88
2023/09/25 02:56:25;;;;;;;6.55;2.42;;;11.50;99.90;;;;;;4937403;29;20074;-88
2023/09/25 02:58:52;;;;;;;5.53;2.30;;;11.50;99.90;;;;;;4949412;29;20049;-88
2023/09/25 03:01:18;;;;;;;4.45;2.50;;;11.40;99.90;;;;;;4945318;29;20043;-88
2023/09/25 03:03:45;;;;;;;5.38;2.20;;;11.50;99.90;;;;;;4942146;29;20408;-88
2023/09/25 03:06:12;;;;;;;4.03;2.40;;;11.40;99.90;;;;;;4948893;29;20046;-88
2023/09/25 03:08:38;;;;;;;5.20;2.40;;;11.40;99.90;;;;;;4971462;28;20134;-88
2023/09/25 03:11:05;;;;;;;3.97;2.08;;;11.40;99.90;;;;;;4956113;29;20044;-88
2023/09/25 03:13:32;;;;;;;5.80;2.40;;;11.40;99.90;;;;;;4943379;29;20074;-88
2023/09/25 03:15:59;;;;;;;4.10;2.40;;;11.40;99.90;;;;;;4959719;29;20500;-88
2023/09/25 03:18:25;;;;;;;5.35;2.20;;;11.70;99.90;;;;;;4959846;29;20047;-88
2023/09/25 03:20:52;;;;;;;6.75;2.50;;;11.50;99.90;;;;;;4959937;29;20074;-88
2023/09/25 03:23:19;;;;;;;5.95;2.30;;;11.50;99.90;;;;;;4971973;28;20500;-87
2023/09/25 03:25:46;;;;;;;5.80;2.47;;;11.50;99.90;;;;;;4968695;28;20129;-88
2023/09/25 03:28:13;;;;;;;5.57;2.47;;;11.50;99.90;;;;;;4977970;28;20514;-88
2023/09/25 03:30:40;;;;;;;6.75;2.47;;;11.50;99.90;;;;;;4978903;28;20035;-88
2023/09/25 03:33:09;;;;;;;5.13;2.35;;;11.50;99.90;;;;;;4978274;28;20082;-88
2023/09/25 03:35:37;;;;;;;4.35;2.30;;;11.50;99.90;;;;;;4978688;28;20407;-88
2023/09/25 03:38:04;;;;;;;5.53;2.40;;;11.50;99.90;;;;;;4981682;28;20403;-88
2023/09/25 03:40:31;;;;;;;4.60;2.22;;;11.50;99.90;;;;;;4967047;29;20039;-88
2023/09/25 03:42:57;;;;;;;4.13;2.55;;;11.50;99.90;;;;;;4976486;28;20049;-88
2023/09/25 03:45:24;;;;;;;5.60;2.33;;;11.50;99.90;;;;;;4966243;29;20043;-88
2023/09/25 03:47:51;;;;;;;4.20;2.38;;;11.80;99.90;;;;;;4959228;29;20039;-88
2023/09/25 03:50:17;;;;;;;6.70;2.30;;;11.50;99.90;;;;;;4987984;28;20035;-88
2023/09/25 03:52:44;;;;;;;5.65;2.38;;;11.60;99.90;;;;;;4977940;28;20142;-88
2023/09/25 03:55:11;;;;;;;5.03;2.83;;;11.60;99.90;;;;;;4971838;29;20039;-88
2023/09/25 03:57:37;;;;;;;3.90;2.30;;;11.60;99.90;;;;;;4958905;29;20074;-88
2023/09/25 04:00:06;;;;;;;6.05;2.50;;;11.60;99.90;;;;;;4971431;28;20089;-88
2023/09/25 04:02:33;;;;;;;4.45;2.42;;;11.60;99.90;;;;;;4950716;29;20528;-88
2023/09/25 04:05:00;;;;;;;3.80;2.40;;;11.60;99.90;;;;;;4954497;28;20089;-88
2023/09/25 04:07:26;;;;;;;4.35;2.30;;;11.60;99.90;;;;;;4977674;28;20066;-88
2023/09/25 04:09:54;;;;;;;4.57;2.55;;;11.60;99.90;;;;;;4962363;29;20054;-88
2023/09/25 04:12:21;;;;;;;4.80;2.50;;;11.50;99.90;;;;;;4957988;29;20073;-88
2023/09/25 04:14:48;;;;;;;4.43;2.50;;;11.50;99.90;;;;;;4958183;29;20087;-88
2023/09/25 04:17:15;;;;;;;6.05;2.58;;;11.60;99.90;;;;;;4967124;28;20042;-87
2023/09/25 04:19:43;;;;;;;3.85;2.25;;;11.50;99.90;;;;;;4977410;28;20039;-88
2023/09/25 04:22:12;;;;;;;5.47;2.42;;;11.60;99.90;;;;;;4972644;28;20046;-88
2023/09/25 04:24:38;;;;;;;5.13;3.17;;;11.50;99.90;;;;;;4970277;28;20051;-88
2023/09/25 04:27:05;;;;;;;5.53;2.60;;;11.60;99.90;;;;;;4953253;28;20122;-88
2023/09/25 04:29:32;;;;;;;5.55;2.58;;;11.60;99.90;;;;;;4963878;29;20039;-88
2023/09/25 04:31:58;;;;;;;4.82;2.67;;;11.60;99.90;;;;;;4958358;29;20042;-87
2023/09/25 04:34:25;;;;;;;5.05;2.55;;;11.60;99.90;;;;;;4958084;29;20047;-88
2023/09/25 04:36:52;;;;;;;4.28;2.55;;;11.60;99.90;;;;;;4958547;29;20046;-88
2023/09/25 04:39:20;;;;;;;5.07;2.30;;;11.60;99.90;;;;;;4959705;28;20492;-87
2023/09/25 04:41:47;;;;;;;4.53;2.40;;;11.60;99.90;;;;;;4968505;29;20039;-88
2023/09/25 04:44:14;;;;;;;6.35;2.50;;;11.70;99.90;;;;;;4957722;29;20134;-87
2023/09/25 04:46:40;;;;;;;4.38;2.53;;;11.60;99.90;;;;;;4967274;28;20122;-88
2023/09/25 04:49:08;;;;;;;3.97;2.10;;;11.70;99.90;;;;;;4961100;29;20039;-87
2023/09/25 04:51:35;;;;;;;4.72;2.38;;;11.60;99.90;;;;;;4957749;29;20039;-88
2023/09/25 04:54:03;;;;;;;5.60;2.60;;;11.60;99.90;;;;;;4970280;29;20106;-88
2023/09/25 04:56:29;;;;;;;4.82;2.50;;;11.50;99.90;;;;;;4970250;29;20043;-88
2023/09/25 04:58:57;;;;;;;6.72;2.92;;;11.50;99.90;;;;;;4960223;28;20049;-88
2023/09/25 05:01:24;;;;;;;4.47;2.45;;;11.50;99.90;;;;;;4965418;29;20130;-88
2023/09/25 05:03:50;;;;;;;4.20;2.55;;;11.50;99.90;;;;;;4972764;29;20628;-88
2023/09/25 05:06:17;;;;;;;5.68;2.55;;;11.50;99.90;;;;;;4968763;28;20038;-87
2023/09/25 05:08:44;;;;;;;5.47;2.33;;;11.70;99.90;;;;;;4970578;29;20059;-88
2023/09/25 05:11:11;;;;;;;4.68;2.60;;;11.50;99.90;;;;;;4957260;29;20046;-88
2023/09/25 05:13:38;;;;;;;4.38;2.30;;;11.50;99.90;;;;;;4957506;29;20035;-88
2023/09/25 05:16:04;;;;;;;4.45;2.42;;;11.40;99.90;;;;;;4957144;28;20502;-88
2023/09/25 05:18:31;;;;;;;4.93;2.60;;;11.50;99.90;;;;;;4969798;29;20108;-87
2023/09/25 05:20:58;;;;;;;4.43;2.22;;;11.40;99.90;;;;;;4946198;29;20123;-88
2023/09/25 05:23:25;;;;;;;5.03;2.40;;;11.50;99.90;;;;;;4943598;29;20469;-87
2023/09/25 05:25:56;;;;;;;4.72;2.80;;;11.50;99.90;;;;;;4956621;29;20098;-87
2023/09/25 05:28:23;;;;;;;6.75;3.10;;;11.40;99.90;;;;;;4969165;29;20039;-88
2023/09/25 05:30:52;;;;;;;4.35;2.20;;;11.50;99.90;;;;;;4966035;28;20107;-88
2023/09/25 05:33:20;;;;;;;5.28;2.50;;;11.50;99.90;;;;;;4968969;29;20040;-88
2023/09/25 05:35:48;;;;;;;5.30;2.50;;;11.50;99.90;;;;;;4962086;28;20490;-88
2023/09/25 05:38:14;;;;;;;5.97;2.80;;;11.60;99.90;;;;;;4957334;28;20039;-88
2023/09/25 05:40:41;;;;;;;4.80;2.47;;;11.50;99.90;;;;;;4973120;29;20104;-88
2023/09/25 05:43:08;;;;;;;4.00;2.22;;;11.60;99.90;;;;;;4952881;29;20062;-88
2023/09/25 05:45:35;;;;;;;10.82;2.53;;;11.60;99.90;;;;;;4957733;29;20047;-88
2023/09/25 05:48:03;;;;;;;4.75;2.45;;;12.10;99.90;;;;;;4970132;29;20502;-88
2023/09/25 05:50:33;;;;;;;4.55;2.30;;;11.60;99.90;;;;;;4955945;28;20043;-88
2023/09/25 05:53:00;;;;;;;7.75;2.42;;;11.60;99.90;;;;;;4964253;28;20914;-88
2023/09/25 05:55:27;;;;;;;6.10;2.35;;;11.60;99.90;;;;;;4952580;29;20123;-88
2023/09/25 05:57:55;;;;;;;5.95;2.20;;;11.70;99.90;;;;;;4937641;28;20051;-87
2023/09/25 06:00:22;;;;;;;4.75;2.20;;;11.70;99.90;;;;;;4968875;29;20071;-87
2023/09/25 06:02:49;;;;;;;4.07;2.30;;;11.70;99.90;;;;;;4956852;28;20492;-88
2023/09/25 06:08:52;;;;;;;3.67;1.98;;;11.80;99.90;;;;;;4932701;29;20056;-89
2023/09/25 06:11:19;;;;;;;5.72;1.95;;;12.10;99.90;;;;;;4916983;29;20058;-88
2023/09/25 06:13:46;;;;;;;5.45;2.38;;;12.10;99.90;;;;;;4919706;29;20135;-89
2023/09/25 06:16:13;;;;;;;5.90;2.42;;;11.90;99.90;;;;;;4913035;29;20137;-89
2023/09/25 06:18:40;;;;;;;4.05;2.38;;;12.10;99.90;;;;;;4912932;29;20088;-88
2023/09/25 06:21:12;;;;;;;6.10;2.25;;;12.00;99.90;;;;;;4887353;29;20045;-88
2023/09/25 06:23:39;;;;;;;5.47;2.05;;;12.00;99.90;;;;;;4916927;29;20718;-88
2023/09/25 06:26:06;;;;;;;5.45;2.60;;;12.00;99.90;;;;;;4930500;29;20493;-89
2023/09/25 06:28:33;;;;;;;4.03;2.30;;;12.40;99.90;;;;;;4920500;29;20095;-88
2023/09/25 06:31:03;;;;;;;4.13;2.38;;;12.10;99.90;;;;;;4922226;29;20044;-88
2023/09/25 06:33:29;;;;;;;5.75;1.98;;;12.20;99.90;;;;;;4914370;29;20036;-87
2023/09/25 06:35:56;;;;;;;3.63;2.10;;;12.20;99.90;;;;;;4888070;29;20131;-89
2023/09/25 06:38:24;;;;;;;4.82;2.13;;;12.20;99.90;;;;;;4902681;29;20042;-87
2023/09/25 06:40:51;;;;;;;6.07;2.25;;;12.30;99.90;;;;;;4925973;29;20184;-88
2023/09/25 06:43:18;;;;;;;3.75;2.35;;;12.30;99.90;;;;;;4944156;29;20051;-88
2023/09/25 06:45:45;;;;;;;7.35;2.13;;;12.40;99.90;;;;;;4968941;29;20512;-88
2023/09/25 06:48:12;;;;;;;6.68;2.22;;;12.40;99.90;;;;;;4968656;29;20085;-88
2023/09/25 06:50:39;;;;;;;6.25;2.05;;;12.50;99.90;;;;;;4966391;29;20094;-87
2023/09/25 06:53:06;;;;;;;5.80;2.20;;;12.50;99.90;;;;;;4958396;29;20102;-88
2023/09/25 06:55:33;;;;;;;5.15;2.10;;;12.50;99.90;;;;;;4949468;29;20055;-88
2023/09/25 06:58:03;;;;;;;6.07;2.35;;;12.50;99.90;;;;;;4949770;28;20147;-89
2023/09/25 07:00:30;;;;;;;6.20;1.88;;;12.60;99.90;;;;;;4963311;28;20055;-88
2023/09/25 07:03:06;;;;;;;3.55;1.83;;;12.60;99.90;;;;;;4966889;29;20195;-88
2023/09/25 07:05:38;;;;;;;3.88;2.05;;;12.70;99.90;;;;;;4956519;29;20040;-88
2023/09/25 07:08:05;;;;;;;4.43;2.20;;;12.80;99.90;;;;;;4952492;29;20051;-88
2023/09/25 07:10:32;;;;;;;5.15;2.35;;;12.90;99.90;;;;;;4942392;28;20039;-88
2023/09/25 07:12:59;;;;;;;5.50;2.38;;;13.00;99.90;;;;;;4963515;28;20483;-88
2023/09/25 07:15:26;;;;;;;4.78;2.50;;;13.00;99.90;;;;;;4960289;28;20204;-89
2023/09/25 07:17:53;;;;;;;4.20;2.17;;;13.10;99.90;;;;;;4961564;29;20039;-89
2023/09/25 07:20:20;;;;;;;4.18;1.95;;;13.20;99.90;;;;;;4963835;28;20044;-88
2023/09/25 07:22:46;;;;;;;4.25;1.95;;;13.20;99.90;;;;;;4963448;28;20047;-88
2023/09/25 07:25:13;;;;;;;5.07;1.90;;;13.30;99.90;;;;;;4961476;29;20047;-89
2023/09/25 07:27:40;;;;;;;5.03;2.20;;;13.40;99.90;;;;;;4968289;29;20083;-89
2023/09/25 07:30:11;;;;;;;3.28;1.90;;;13.50;99.90;;;;;;4975749;28;20039;-87
2023/09/25 07:32:39;;;;;;;3.60;2.00;;;13.60;99.90;;;;;;4952645;28;20100;-89
2023/09/25 07:35:09;;;;;;;4.03;1.85;;;13.60;99.90;;;;;;4966472;28;20042;-88
2023/09/25 07:37:37;;;;;;;3.60;1.98;;;13.70;99.90;;;;;;4961697;29;20043;-88
2023/09/25 07:40:10;;;;;;;4.22;2.00;;;13.80;99.90;;;;;;4957647;28;20078;-89
2023/09/25 07:42:38;;;;;;;5.68;1.83;;;13.90;99.90;;;;;;4964671;29;20131;-89
2023/09/25 07:45:11;;;;;;;3.95;1.90;;;14.00;99.90;;;;;;4963803;28;20051;-90
2023/09/25 07:47:41;;;;;;;3.97;1.92;;;14.10;99.90;;;;;;4943495;29;20039;-90
2023/09/25 07:50:11;;;;;;;4.93;1.90;;;14.10;99.90;;;;;;4967979;28;20058;-88
2023/09/25 07:52:40;;;;;;;3.80;1.90;;;14.10;99.90;;;;;;4947051;28;20050;-88
2023/09/25 07:55:13;;;;;;;4.47;1.90;;;14.20;99.90;;;;;;4968402;29;20047;-88
2023/09/25 07:57:43;;;;;;;3.35;1.85;;;14.30;99.90;;;;;;4961680;28;20491;-89
2023/09/25 08:00:23;;;;;;;5.03;1.85;;;14.30;99.90;;;;;;4967816;29;20094;-89
2023/09/25 08:03:06;;;;;;;4.45;1.90;;;14.40;99.90;;;;;;4958341;29;20047;-88
2023/09/25 08:05:35;;;;;;;4.38;1.80;;;14.40;99.90;;;;;;4958901;28;20419;-89
2023/09/25 08:08:05;;;;;;;4.80;1.80;;;14.60;99.90;;;;;;4972101;28;20090;-88
2023/09/25 08:10:33;;;;;;;3.95;1.85;;;14.70;99.90;;;;;;4943152;28;20094;-89
2023/09/25 08:13:00;;;;;;;5.32;1.88;;;14.80;99.90;;;;;;4967818;28;20483;-88
2023/09/25 08:15:30;;;;;;;4.75;1.90;;;14.80;99.90;;;;;;4961508;29;20054;-89
2023/09/25 08:17:57;;;;;;;4.63;1.80;;;14.90;99.90;;;;;;4957816;29;20043;-88
2023/09/25 08:20:26;;;;;;;6.40;1.88;;;15.00;99.90;;;;;;4965270;28;20039;-88
2023/09/25 08:22:53;;;;;;;2.67;1.45;;;15.00;99.90;;;;;;4960390;29;20043;-88
2023/09/25 08:25:23;;;;;;;4.03;1.85;;;15.10;99.90;;;;;;4966478;28;20051;-88
2023/09/25 08:31:48;;;;;;;5.53;1.92;;;15.20;99.90;;;;;;4972184;28;20396;-90
2023/09/25 08:34:19;;;;;;;6.45;1.80;;;15.10;99.90;;;;;;4974420;28;20065;-89
2023/09/25 08:37:07;;;;;;;5.07;1.67;;;15.30;99.90;;;;;;4952893;29;20134;-88
2023/09/25 08:39:36;;;;;;;5.78;1.67;;;15.50;99.90;;;;;;4946658;29;20062;-89
2023/09/25 08:42:04;;;;;;;3.15;1.52;;;15.60;99.90;;;;;;4966908;28;20043;-88
2023/09/25 08:44:31;;;;;;;4.50;1.83;;;15.70;99.90;;;;;;4960440;28;20058;-88
2023/09/25 08:46:58;;;;;;;3.53;1.85;;;15.80;99.90;;;;;;4955787;28;20109;-89
2023/09/25 08:49:25;;;;;;;4.63;1.80;;;15.90;99.90;;;;;;4951445;29;20492;-89
2023/09/25 08:51:55;;;;;;;3.60;1.70;;;16.00;99.90;;;;;;4970399;28;20046;-90
2023/09/25 08:57:26;;;;;;;3.08;1.55;;;16.10;99.90;;;;;;4960845;29;20158;-90
2023/09/25 08:59:53;;;;;;;2.90;1.40;;;16.20;99.90;;;;;;4958074;29;20187;-90
2023/09/25 09:02:21;;;;;;;3.85;1.80;;;16.20;99.90;;;;;;4962501;28;20102;-89
2023/09/25 09:04:51;;;;;;;4.05;1.70;;;16.30;99.90;;;;;;4971689;28;20055;-89
2023/09/25 09:07:18;;;;;;;4.38;1.73;;;16.30;99.90;;;;;;4964513;28;20058;-91
2023/09/25 09:09:46;;;;;;;4.68;1.65;;;16.50;99.90;;;;;;4965139;28;20059;-88
2023/09/25 09:12:12;;;;;;;3.75;1.70;;;16.60;99.90;;;;;;4973279;28;20041;-88
2023/09/25 09:14:42;;;;;;;4.70;1.38;;;16.70;99.90;;;;;;4964740;29;20458;-89
2023/09/25 09:17:18;;;;;;;3.20;1.50;;;16.80;99.90;;;;;;4957974;28;20058;-90
2023/09/25 09:19:48;;;;;;;2.90;1.30;;;16.90;99.90;;;;;;4965086;29;20043;-89
2023/09/25 09:22:18;;;;;;;4.28;1.63;;;17.10;99.90;;;;;;4948892;29;20067;-88
2023/09/25 09:24:47;;;;;;;5.97;1.67;;;17.20;99.90;;;;;;4967096;29;20043;-88
2023/09/25 09:27:20;;;;;;;2.58;1.40;;;17.40;99.90;;;;;;4933496;29;20036;-88
2023/09/25 09:29:52;;;;;;;4.45;1.70;;;17.60;99.90;;;;;;4955775;28;20055;-88
2023/09/25 09:32:19;;;;;;;4.18;1.80;;;17.60;99.90;;;;;;4975659;28;20064;-88
2023/09/25 09:34:49;;;;;;;4.47;1.60;;;17.40;99.90;;;;;;4963454;28;20529;-87
2023/09/25 09:37:18;;;;;;;4.50;1.75;;;17.60;99.90;;;;;;4959786;29;20074;-88
2023/09/25 09:39:52;;;;;;;4.05;1.40;;;17.60;99.90;;;;;;4956308;29;20074;-88
2023/09/25 09:42:21;;;;;;;4.50;1.70;;;17.60;99.90;;;;;;4968465;28;20046;-89
2023/09/25 09:44:53;;;;;;;4.05;1.77;;;17.40;99.90;;;;;;4971055;29;20039;-87
2023/09/25 09:47:22;;;;;;;3.83;1.45;;;17.40;99.90;;;;;;4969373;28;20117;-89
2023/09/25 09:49:53;;;;;;;6.20;1.50;;;17.30;99.90;;;;;;4957058;29;20077;-89
2023/09/25 09:52:20;;;;;;;4.07;1.80;;;17.10;99.90;;;;;;4960031;28;20039;-88
2023/09/25 09:54:50;;;;;;;3.65;1.45;;;17.20;99.90;;;;;;4965607;29;20070;-90
2023/09/25 09:57:18;;;;;;;5.30;1.90;;;17.10;99.90;;;;;;4963129;28;20056;-89
2023/09/25 09:59:55;;;;;;;6.60;1.90;;;17.10;99.90;;;;;;4964502;28;20789;-90
2023/09/25 10:02:22;;;;;;;5.20;1.83;;;17.10;99.90;;;;;;4956288;28;20048;-89
2023/09/25 10:04:50;;;;;;;4.43;1.98;;;17.10;99.90;;;;;;4990067;28;20103;-88
2023/09/25 10:07:17;;;;;;;3.95;1.90;;;17.20;99.90;;;;;;4948989;29;20056;-89
2023/09/25 10:10:05;;;;;;;3.83;1.60;;;17.20;99.90;;;;;;4963664;29;20094;-89
2023/09/25 10:12:50;;;;;;;5.05;1.60;;;17.40;99.90;;;;;;4944444;28;20093;-88
2023/09/25 10:15:21;;;;;;;3.10;1.30;;;17.50;99.90;;;;;;4962010;28;20035;-87
2023/09/25 10:17:49;;;;;;;3.20;1.38;;;17.70;99.90;;;;;;4967330;28;20058;-88
2023/09/25 10:20:31;;;;;;;5.93;1.70;;;17.80;99.90;;;;;;4977205;28;20399;-86
2023/09/25 10:23:08;;;;;;;3.55;1.58;;;17.90;99.90;;;;;;4959694;29;20042;-87
2023/09/25 10:25:52;;;;;;;3.72;1.52;;;18.00;99.90;;;;;;4945054;29;20381;-86
2023/09/25 10:28:28;;;;;;;3.80;1.40;;;18.10;99.90;;;;;;4969250;29;20040;-87
2023/09/25 10:31:02;;;;;;;4.90;1.73;;;18.30;99.90;;;;;;4968380;29;20134;-86
2023/09/25 10:33:33;;;;;;;5.05;1.60;;;18.40;99.90;;;;;;4943213;29;20661;-87
2023/09/25 10:36:03;;;;;;;5.57;1.80;;;18.50;99.90;;;;;;4952298;29;20649;-86
2023/09/25 10:38:33;;;;;;;3.47;1.60;;;18.60;99.90;;;;;;4959426;29;20047;-86
2023/09/25 10:41:02;;;;;;;4.20;1.70;;;18.70;99.90;;;;;;4990016;28;20463;-86
2023/09/25 10:43:30;;;;;;;3.28;1.50;;;18.70;99.90;;;;;;4981598;28;20054;-87
2023/09/25 10:45:57;;;;;;;3.63;1.70;;;18.70;99.90;;;;;;4952199;29;20047;-87
2023/09/25 10:48:25;;;;;;;3.85;1.70;;;18.70;99.90;;;;;;4950626;29;20050;-86
2023/09/25 10:50:55;;;;;;;3.60;1.65;;;18.80;99.90;;;;;;4967024;29;20046;-90
2023/09/25 10:57:07;;;;;;;5.30;1.85;;;18.80;99.90;;;;;;4966843;29;20098;-90
2023/09/25 11:00:36;;;;;;;;;;;;;;;;;;;;;
2023/09/25 11:03:41;;;;;;;4.45;1.55;;;18.50;99.90;;;;;;4926254;29;20047;-87
2023/09/25 11:06:11;;;;;;;5.40;1.50;;;18.90;99.90;;;;;;4901844;29;20045;-89
2023/09/25 11:08:44;;;;;;;3.33;1.40;;;19.00;99.90;;;;;;4897769;29;20056;-89
2023/09/25 11:11:17;;;;;;;3.70;1.58;;;19.00;99.90;;;;;;4910507;29;20196;-89
2023/09/25 11:13:44;;;;;;;3.45;1.30;;;19.10;99.90;;;;;;4908661;29;20095;-89
2023/09/25 11:16:19;;;;;;;3.67;1.60;;;19.20;99.90;;;;;;4914806;29;20131;-88
2023/09/25 11:19:12;;;;;;;3.97;1.50;;;19.20;99.90;;;;;;4917216;29;20048;-89
2023/09/25 11:21:50;;;;;;;3.97;1.63;;;19.20;99.90;;;;;;4934748;29;20880;-89
2023/09/25 11:24:19;;;;;;;9.02;1.65;;;19.20;99.90;;;;;;4916198;29;20053;-90
2023/09/25 11:26:49;;;;;;;3.08;1.50;;;19.20;99.90;;;;;;4937839;29;20498;-89
2023/09/25 11:29:18;;;;;;;4.07;1.60;;;19.30;99.90;;;;;;4929305;29;20036;-93
2023/09/25 11:31:45;;;;;;;5.85;1.60;;;19.30;99.90;;;;;;4912085;29;20049;-93
2023/09/25 11:34:14;;;;;;;2.90;1.50;;;19.30;99.90;;;;;;4913881;29;20035;-92
2023/09/25 11:36:54;;;;;;;2.80;1.35;;;19.40;99.90;;;;;;4927955;29;20052;-93
2023/09/25 11:39:21;;;;;;;4.28;1.67;;;19.30;99.90;;;;;;4955880;29;20044;-93
2023/09/25 11:41:47;;;;;;;3.15;1.55;;;19.40;99.90;;;;;;4953040;29;20135;-91
2023/09/25 11:44:17;;;;;;;3.92;1.60;;;19.50;99.90;;;;;;4949896;29;20063;-92
2023/09/25 11:46:50;;;;;;;6.15;1.67;;;19.50;99.90;;;;;;4955675;29;20043;-91
2023/09/25 11:49:17;;;;;;;3.78;1.60;;;19.40;99.90;;;;;;4998524;28;20063;-93
2023/09/25 11:51:44;;;;;;;3.45;1.60;;;19.50;99.90;;;;;;4974324;29;20102;-92
2023/09/25 11:54:12;;;;;;;5.63;1.80;;;19.60;99.90;;;;;;4958514;29;20042;-92
2023/09/25 11:56:38;;;;;;;3.10;1.50;;;19.60;99.90;;;;;;4998529;28;20035;-85
2023/09/25 11:59:06;;;;;;;4.53;1.58;;;19.60;99.90;;;;;;4949647;29;20039;-91
2023/09/25 12:01:36;;;;;;;3.67;1.70;;;19.60;99.90;;;;;;4957939;29;20043;-93
2023/09/25 12:04:03;;;;;;;4.95;1.63;;;19.80;99.90;;;;;;4964656;29;20039;-92
2023/09/25 12:06:30;;;;;;;4.30;1.55;;;19.60;99.90;;;;;;4958479;29;20531;-91
2023/09/25 12:09:10;;;;;;;9.80;1.92;;;19.60;99.90;;;;;;4965902;29;20043;-91
2023/09/25 12:11:46;;;;;;;4.57;1.60;;;19.70;99.90;;;;;;4959547;29;20043;-91
2023/09/25 12:14:19;;;;;;;3.85;1.73;;;19.70;99.90;;;;;;4991092;28;20039;-92
2023/09/25 12:16:46;;;;;;;3.70;1.40;;;19.80;99.90;;;;;;4995782;28;20043;-91
2023/09/25 12:22:16;;;;;;;3.05;1.40;;;19.90;99.90;;;;;;4960278;29;20126;-89
2023/09/25 12:24:44;;;;;;;4.35;1.80;;;20.00;99.90;;;;;;4966970;29;20048;-89
2023/09/25 12:27:14;;;;;;;4.40;1.65;;;20.00;99.90;;;;;;4959633;29;20500;-89
2023/09/25 12:29:42;;;;;;;3.75;1.52;;;19.80;99.90;;;;;;4989214;29;20050;-90
2023/09/25 12:32:09;;;;;;;4.25;1.67;;;19.90;99.90;;;;;;4955162;29;20043;-90
2023/09/25 12:34:37;;;;;;;2.75;1.40;;;20.00;99.90;;;;;;4954882;29;20503;-89
2023/09/25 12:37:04;;;;;;;6.13;1.60;;;20.00;99.90;;;;;;4969806;29;20122;-89
2023/09/25 12:39:31;;;;;;;5.07;1.65;;;20.00;99.90;;;;;;4971090;29;20186;-90
2023/09/25 12:41:58;;;;;;;3.58;1.60;;;20.10;99.90;;;;;;4995734;28;20123;-89
2023/09/25 12:44:25;;;;;;;6.70;1.80;;;20.10;99.90;;;;;;4968627;29;20051;-90
2023/09/25 12:46:52;;;;;;;2.95;1.58;;;20.20;99.90;;;;;;4939030;29;20056;-89
2023/09/25 12:49:19;;;;;;;5.57;1.73;;;20.20;99.90;;;;;;4972355;29;20065;-89
2023/09/25 12:52:14;;;;;;;4.15;1.60;;;20.10;99.90;;;;;;4969965;29;20040;-90
2023/09/25 12:54:50;;;;;;;4.03;1.50;;;20.10;99.90;;;;;;4943702;29;20115;-89
2023/09/25 12:57:17;;;;;;;3.30;1.77;;;20.00;99.90;;;;;;4997119;28;20241;-89
2023/09/25 12:59:47;;;;;;;4.82;1.77;;;20.00;99.90;;;;;;4995079;28;20044;-91
2023/09/25 13:02:16;;;;;;;6.10;1.60;;;20.00;99.90;;;;;;4968939;29;20039;-92
2023/09/25 13:04:43;;;;;;;3.88;1.60;;;20.00;99.90;;;;;;4951125;29;20043;-91
2023/09/25 13:07:10;;;;;;;4.45;1.60;;;20.00;99.90;;;;;;4970250;29;20051;-92
2023/09/25 13:09:37;;;;;;;4.32;1.58;;;20.10;99.90;;;;;;4954813;29;20047;-90
2023/09/25 13:12:04;;;;;;;4.85;1.58;;;20.00;99.90;;;;;;4964389;28;20066;-90
2023/09/25 13:14:32;;;;;;;4.22;1.63;;;20.00;99.90;;;;;;4964058;29;20050;-91